Time;durP1;ratioP1;P1;durP2;ratioP2;P2;SDS_P1;SDS_P2;PMS_P1;PMS_P2;Temp;Humidity;BMP_temperature;BMP_pressure;BME280_temperature;BME280_humidity;BME280_pressure;Samples;Min_cycle;Max_cycle;Signal;HPM_P1;HPM_P2
2021/10/31 00:00:09;;;;;;;35.57;18.53;;;;;;;4.88;100.00;101538.01;1702833;82;21076;-72
2021/10/31 00:02:39;;;;;;;32.13;18.03;;;;;;;4.87;100.00;101537.64;1719032;82;21105;-72
2021/10/31 00:05:08;;;;;;;31.83;17.93;;;;;;;4.85;100.00;101534.66;1701672;83;21582;-71
2021/10/31 00:07:35;;;;;;;35.73;19.57;;;;;;;4.84;100.00;101535.64;1724991;83;21534;-70
2021/10/31 00:10:05;;;;;;;33.73;17.87;;;;;;;4.82;100.00;101539.75;1712498;83;21049;-72
2021/10/31 00:12:34;;;;;;;33.37;17.50;;;;;;;4.83;100.00;101543.28;1649332;85;21070;-72
2021/10/31 00:15:01;;;;;;;32.30;17.03;;;;;;;4.83;100.00;101537.44;1657023;85;21081;-72
2021/10/31 00:17:29;;;;;;;29.23;16.63;;;;;;;4.85;100.00;101536.00;1723996;83;21543;-70
2021/10/31 00:19:56;;;;;;;32.97;18.30;;;;;;;4.86;100.00;101536.40;1720343;83;21129;-72
2021/10/31 00:22:24;;;;;;;34.77;18.30;;;;;;;4.86;100.00;101535.91;1698360;83;21184;-72
2021/10/31 00:24:51;;;;;;;31.63;17.30;;;;;;;4.86;100.00;101535.91;1759104;80;21030;-71
2021/10/31 00:27:19;;;;;;;31.30;17.20;;;;;;;4.87;100.00;101534.08;1724616;82;21035;-72
2021/10/31 00:29:46;;;;;;;29.47;16.00;;;;;;;4.85;100.00;101537.34;1814938;78;21008;-71
2021/10/31 00:32:13;;;;;;;30.90;15.50;;;;;;;4.85;100.00;101533.33;1795343;78;20977;-71
2021/10/31 00:34:42;;;;;;;30.63;16.57;;;;;;;4.84;100.00;101528.45;1819843;78;21279;-71
2021/10/31 00:37:09;;;;;;;31.90;17.40;;;;;;;4.83;100.00;101532.08;1809601;78;20998;-72
2021/10/31 00:39:36;;;;;;;30.70;16.60;;;;;;;4.81;100.00;101527.30;1814521;78;21561;-71
2021/10/31 00:42:04;;;;;;;27.43;16.10;;;;;;;4.79;100.00;101530.56;1794007;78;21040;-71
2021/10/31 00:44:32;;;;;;;30.30;16.47;;;;;;;4.77;100.00;101527.12;1819120;78;22089;-71
2021/10/31 00:47:00;;;;;;;30.20;16.23;;;;;;;4.77;100.00;101522.25;1808626;78;20998;-71
2021/10/31 00:49:27;;;;;;;28.80;15.60;;;;;;;4.77;100.00;101526.27;1825661;78;21505;-71
2021/10/31 00:51:54;;;;;;;27.67;15.47;;;;;;;4.75;100.00;101523.19;1815030;78;21002;-72
2021/10/31 00:54:21;;;;;;;25.93;15.20;;;;;;;4.77;100.00;101524.93;1823914;78;21022;-71
2021/10/31 00:56:48;;;;;;;26.13;15.10;;;;;;;4.74;100.00;101522.80;1828188;78;21533;-72
2021/10/31 00:59:15;;;;;;;28.90;15.53;;;;;;;4.70;100.00;101519.94;1834817;78;21530;-71
2021/10/31 01:01:44;;;;;;;27.10;15.00;;;;;;;4.66;100.00;101515.74;1827533;77;21018;-71
2021/10/31 01:04:12;;;;;;;24.67;14.17;;;;;;;4.64;100.00;101518.13;1827251;78;21014;-71
2021/10/31 01:07:08;;;;;;;26.10;14.30;;;;;;;4.63;100.00;101523.11;1827179;78;21006;-72
2021/10/31 01:10:09;;;;;;;26.53;14.70;;;;;;;4.62;100.00;101518.70;1827895;77;21045;-71
2021/10/31 01:13:06;;;;;;;27.93;15.50;;;;;;;4.60;100.00;101517.94;1833610;78;21003;-71
2021/10/31 01:16:09;;;;;;;25.93;14.63;;;;;;;4.55;100.00;101512.41;1828793;78;20997;-71
2021/10/31 01:19:15;;;;;;;29.07;14.97;;;;;;;4.52;100.00;101507.72;1757746;79;20987;-72
2021/10/31 01:22:13;;;;;;;26.07;14.80;;;;;;;4.48;100.00;101511.06;1763307;79;21045;-71
2021/10/31 01:24:54;;;;;;;26.63;13.97;;;;;;;4.46;100.00;101504.95;1741704;79;21030;-70
2021/10/31 01:27:35;;;;;;;24.60;13.37;;;;;;;4.46;100.00;101510.76;1734628;80;21066;-72
2021/10/31 01:30:17;;;;;;;25.83;14.47;;;;;;;4.43;100.00;101504.28;1725235;81;21041;-72
2021/10/31 01:33:28;;;;;;;25.10;13.50;;;;;;;4.40;100.00;101503.97;1726991;83;21086;-72
2021/10/31 01:36:23;;;;;;;24.33;13.70;;;;;;;4.37;100.00;101507.72;1683302;84;21019;-72
2021/10/31 01:38:58;;;;;;;28.10;13.97;;;;;;;4.34;100.00;101505.70;1689111;84;21527;-71
2021/10/31 01:41:37;;;;;;;24.67;14.40;;;;;;;4.32;100.00;101508.48;1659350;84;21051;-73
2021/10/31 01:44:30;;;;;;;25.07;13.87;;;;;;;4.33;100.00;101510.67;1682963;84;21608;-72
2021/10/31 01:47:37;;;;;;;27.22;14.13;;;;;;;4.32;100.00;101517.84;1689636;84;21204;-70
2021/10/31 01:50:10;;;;;;;27.03;15.47;;;;;;;4.30;100.00;101509.05;1670570;84;21090;-70
2021/10/31 01:52:44;;;;;;;27.00;15.43;;;;;;;4.24;100.00;101509.91;1663655;84;21248;-72
2021/10/31 01:55:18;;;;;;;26.70;14.47;;;;;;;4.21;100.00;101503.39;1679064;83;21176;-72
2021/10/31 01:57:48;;;;;;;26.53;14.53;;;;;;;4.21;100.00;101504.23;1645277;85;21097;-71
2021/10/31 02:00:16;;;;;;;28.80;15.60;;;;;;;4.21;100.00;101497.55;1679407;84;21130;-72
2021/10/31 02:02:45;;;;;;;29.37;16.83;;;;;;;4.22;100.00;101501.95;1614285;87;21130;-71
2021/10/31 02:05:19;;;;;;;30.30;16.80;;;;;;;4.20;100.00;101498.52;1643357;85;21145;-71
2021/10/31 02:07:50;;;;;;;33.50;18.17;;;;;;;4.17;100.00;101498.70;1671997;85;21084;-70
2021/10/31 02:10:18;;;;;;;36.60;18.57;;;;;;;4.15;100.00;101497.45;1689533;83;21090;-74
2021/10/31 02:12:46;;;;;;;31.30;19.10;;;;;;;4.15;100.00;101498.79;1709384;83;21103;-71
2021/10/31 02:15:15;;;;;;;33.13;18.33;;;;;;;4.15;100.00;101504.14;1729031;83;21101;-71
2021/10/31 02:17:53;;;;;;;32.77;18.87;;;;;;;4.14;100.00;101503.78;1684225;81;21706;-71
2021/10/31 02:20:20;;;;;;;30.60;18.07;;;;;;;4.16;100.00;101506.34;1686503;84;21046;-71
2021/10/31 02:23:01;;;;;;;32.87;17.17;;;;;;;4.14;100.00;101502.44;1665647;81;21027;-69
2021/10/31 02:25:29;;;;;;;28.63;15.97;;;;;;;4.12;100.00;101499.45;1705200;81;21549;-71
2021/10/31 02:27:56;;;;;;;28.20;15.50;;;;;;;4.12;100.00;101494.10;1705298;81;21644;-71
2021/10/31 02:30:23;;;;;;;27.50;16.00;;;;;;;4.11;100.00;101497.27;1748405;81;21030;-71
2021/10/31 02:32:51;;;;;;;30.03;17.27;;;;;;;4.12;100.00;101497.63;1752031;82;21107;-71
2021/10/31 02:35:20;;;;;;;33.03;17.53;;;;;;;4.10;100.00;101493.34;1750173;81;21002;-72
2021/10/31 02:37:47;;;;;;;31.83;17.57;;;;;;;4.06;100.00;101495.83;1721845;81;21096;-71
2021/10/31 02:40:17;;;;;;;30.50;16.83;;;;;;;4.02;100.00;101489.80;1708782;81;21049;-70
2021/10/31 02:42:44;;;;;;;31.43;17.43;;;;;;;4.01;100.00;101488.55;1732928;81;21044;-70
2021/10/31 02:45:11;;;;;;;31.90;16.90;;;;;;;3.98;100.00;101482.44;1732449;81;20981;-72
2021/10/31 02:47:48;;;;;;;33.33;19.10;;;;;;;3.98;100.00;101489.58;1734424;81;21060;-70
2021/10/31 02:50:22;;;;;;;35.67;21.43;;;;;;;3.95;100.00;101480.42;1739127;81;21106;-71
2021/10/31 02:53:25;;;;;;;36.80;21.13;;;;;;;3.95;100.00;101480.42;1731201;81;21028;-72
2021/10/31 02:56:20;;;;;;;34.77;19.10;;;;;;;3.89;100.00;101477.61;1674753;83;21545;-72
2021/10/31 02:59:13;;;;;;;31.57;17.60;;;;;;;3.84;100.00;101483.72;1698976;84;21047;-72
2021/10/31 03:01:40;;;;;;;31.17;17.53;;;;;;;3.81;100.00;101477.23;1662961;84;21106;-73
2021/10/31 03:04:07;;;;;;;31.07;17.27;;;;;;;3.76;100.00;101473.48;1712522;82;21002;-72
2021/10/31 03:06:34;;;;;;;27.80;17.10;;;;;;;3.72;100.00;101482.66;1718843;82;21168;-71
2021/10/31 03:09:03;;;;;;;29.00;17.53;;;;;;;3.67;100.00;101479.40;1701801;83;21101;-73
2021/10/31 03:11:30;;;;;;;28.83;17.13;;;;;;;3.62;100.00;101477.47;1765118;80;21546;-71
2021/10/31 03:13:56;;;;;;;32.83;17.40;;;;;;;3.57;100.00;101474.20;1758675;80;21038;-71
2021/10/31 03:16:24;;;;;;;31.67;17.53;;;;;;;3.56;100.00;101476.47;1857892;77;20967;-71
2021/10/31 03:18:51;;;;;;;33.97;20.03;;;;;;;3.54;100.00;101472.58;1855962;77;21022;-71
2021/10/31 03:21:18;;;;;;;35.70;20.27;;;;;;;3.53;100.00;101472.67;1850116;77;21041;-71
2021/10/31 03:23:45;;;;;;;39.30;21.53;;;;;;;3.50;100.00;101471.50;1781318;80;21055;-70
2021/10/31 03:26:12;;;;;;;39.73;20.70;;;;;;;3.47;100.00;101476.57;1750269;80;21494;-73
2021/10/31 03:28:39;;;;;;;39.23;20.83;;;;;;;3.45;100.00;101471.77;1767203;80;20998;-71
2021/10/31 03:31:06;;;;;;;35.37;20.07;;;;;;;3.45;100.00;101473.10;1795633;79;21007;-71
2021/10/31 03:33:33;;;;;;;32.17;19.87;;;;;;;3.46;100.00;101476.66;1791883;78;21042;-71
2021/10/31 03:36:00;;;;;;;33.60;20.00;;;;;;;3.45;100.00;101474.92;1747845;80;21034;-72
2021/10/31 03:38:28;;;;;;;35.73;19.47;;;;;;;3.43;100.00;101471.00;1740453;80;21030;-70
2021/10/31 03:40:55;;;;;;;32.50;18.33;;;;;;;3.42;100.00;101468.80;1787092;80;21002;-71
2021/10/31 03:43:22;;;;;;;29.00;16.97;;;;;;;3.41;100.00;101472.42;1771570;80;21062;-68
2021/10/31 03:45:51;;;;;;;30.90;17.00;;;;;;;3.41;100.00;101469.75;1856966;77;21053;-72
2021/10/31 03:48:18;;;;;;;29.27;18.13;;;;;;;3.41;100.00;101467.07;1855208;77;21026;-72
2021/10/31 03:50:45;;;;;;;31.43;17.63;;;;;;;3.40;100.00;101463.18;1838040;77;20963;-71
2021/10/31 03:53:12;;;;;;;33.10;17.70;;;;;;;3.36;100.00;101464.28;1808248;77;21018;-71
2021/10/31 03:55:39;;;;;;;36.13;19.47;;;;;;;3.33;100.00;101467.13;1802388;77;20993;-71
2021/10/31 03:58:08;;;;;;;33.00;18.50;;;;;;;3.28;100.00;101454.53;1791239;77;21014;-70
2021/10/31 04:00:35;;;;;;;31.77;18.23;;;;;;;3.25;100.00;101444.86;1846328;77;21069;-73
2021/10/31 04:03:02;;;;;;;31.47;17.13;;;;;;;3.26;100.00;101445.27;1793991;79;21413;-71
2021/10/31 04:05:30;;;;;;;32.23;18.37;;;;;;;3.26;100.00;101445.27;1820642;79;21067;-72
2021/10/31 04:07:57;;;;;;;29.47;16.67;;;;;;;3.28;100.00;101439.83;1803878;78;21035;-71
2021/10/31 04:10:23;;;;;;;29.00;16.87;;;;;;;3.28;100.00;101436.67;1821759;79;20976;-71
2021/10/31 04:12:52;;;;;;;29.20;16.13;;;;;;;3.28;100.00;101431.81;1792546;79;21008;-71
2021/10/31 04:15:19;;;;;;;28.40;16.30;;;;;;;3.28;100.00;101430.48;1791907;79;21506;-71
2021/10/31 04:17:47;;;;;;;30.63;16.87;;;;;;;3.28;100.00;101435.82;1765887;79;21045;-71
2021/10/31 04:20:14;;;;;;;33.53;17.60;;;;;;;3.27;100.00;101428.25;1812719;78;21082;-71
2021/10/31 04:22:40;;;;;;;31.43;16.87;;;;;;;3.25;100.00;101434.17;1816753;78;21004;-71
2021/10/31 04:25:09;;;;;;;30.27;16.67;;;;;;;3.23;100.00;101438.27;1813582;78;21080;-71
2021/10/31 04:27:37;;;;;;;34.03;17.77;;;;;;;3.23;100.00;101433.41;1804785;78;20996;-72
2021/10/31 04:30:05;;;;;;;33.17;16.63;;;;;;;3.22;100.00;101435.67;1790298;79;20988;-72
2021/10/31 04:32:32;;;;;;;60.33;20.77;;;;;;;3.21;100.00;101433.97;1791551;79;21566;-71
2021/10/31 04:34:59;;;;;;;69.10;21.27;;;;;;;3.18;100.00;101430.14;1780430;79;21040;-73
2021/10/31 04:37:28;;;;;;;99.60;26.00;;;;;;;3.16;100.00;101429.37;1815624;78;21508;-72
2021/10/31 04:39:57;;;;;;;73.13;21.93;;;;;;;3.15;100.00;101432.98;1812568;78;21036;-71
2021/10/31 04:42:29;;;;;;;78.07;20.93;;;;;;;3.16;100.00;101433.37;1823929;79;21012;-71
2021/10/31 04:44:53;;;;;;;45.23;17.20;;;;;;;3.18;100.00;101437.67;1800695;78;21485;-70
2021/10/31 04:47:20;;;;;;;30.00;15.03;;;;;;;3.22;100.00;101435.22;1822725;79;21004;-71
2021/10/31 04:49:47;;;;;;;29.70;15.50;;;;;;;3.25;100.00;101431.50;1806100;78;21522;-72
2021/10/31 04:52:16;;;;;;;27.60;14.83;;;;;;;3.27;100.00;101429.59;1792951;79;20973;-71
2021/10/31 04:54:43;;;;;;;30.07;16.60;;;;;;;3.30;100.00;101432.58;1840055;77;21053;-72
2021/10/31 04:57:10;;;;;;;27.23;15.60;;;;;;;3.30;100.00;101436.10;1845220;77;21002;-71
2021/10/31 04:59:38;;;;;;;27.97;14.33;;;;;;;3.31;100.00;101437.84;1841594;77;21057;-71
2021/10/31 05:02:06;;;;;;;25.97;14.37;;;;;;;3.33;100.00;101434.59;1856073;77;20963;-71
2021/10/31 05:04:33;;;;;;;27.70;15.80;;;;;;;3.36;100.00;101430.37;1801475;78;20997;-71
2021/10/31 05:07:00;;;;;;;26.07;14.97;;;;;;;3.37;100.00;101429.92;1795887;78;21060;-71
2021/10/31 05:09:26;;;;;;;24.23;15.10;;;;;;;3.38;100.00;101431.62;1821919;79;21002;-70
2021/10/31 05:11:53;;;;;;;28.60;15.43;;;;;;;3.39;100.00;101432.03;1808016;78;21046;-72
2021/10/31 05:14:20;;;;;;;25.17;14.63;;;;;;;3.41;100.00;101430.13;1819398;78;21073;-72
2021/10/31 05:16:48;;;;;;;25.47;13.90;;;;;;;3.46;100.00;101429.38;1791866;79;21092;-71
2021/10/31 05:19:16;;;;;;;28.53;14.37;;;;;;;3.53;100.00;101428.54;1788648;79;21084;-72
2021/10/31 05:21:46;;;;;;;27.47;15.23;;;;;;;3.58;100.00;101438.48;1811242;78;21048;-71
2021/10/31 05:24:13;;;;;;;30.97;16.53;;;;;;;3.63;100.00;101434.19;1811855;78;21435;-72
2021/10/31 05:26:40;;;;;;;27.13;15.40;;;;;;;3.71;100.00;101437.27;1795591;79;21511;-71
2021/10/31 05:29:07;;;;;;;25.37;14.53;;;;;;;3.78;100.00;101439.47;1789348;78;21549;-72
2021/10/31 05:31:35;;;;;;;29.80;15.57;;;;;;;3.84;100.00;101434.22;1779435;79;21032;-70
2021/10/31 05:34:02;;;;;;;26.13;14.43;;;;;;;3.91;100.00;101438.72;1817679;79;21053;-73
2021/10/31 05:36:33;;;;;;;26.30;14.30;;;;;;;3.98;100.00;101442.74;1814112;78;21009;-70
2021/10/31 05:38:59;;;;;;;31.03;15.60;;;;;;;4.04;100.00;101439.70;1788112;79;21009;-71
2021/10/31 05:41:26;;;;;;;28.23;15.13;;;;;;;4.08;100.00;101438.55;1797884;78;21061;-72
2021/10/31 05:43:53;;;;;;;24.43;13.60;;;;;;;4.11;100.00;101437.52;1821553;79;21069;-71
2021/10/31 05:46:20;;;;;;;24.43;13.70;;;;;;;4.15;100.00;101437.22;1782163;79;21316;-71
2021/10/31 05:48:47;;;;;;;24.47;13.60;;;;;;;4.22;100.00;101440.86;1784963;79;21113;-71
2021/10/31 05:51:14;;;;;;;26.37;14.30;;;;;;;4.27;100.00;101434.75;1784513;79;21005;-71
2021/10/31 05:53:41;;;;;;;27.00;15.53;;;;;;;4.33;100.00;101437.88;1823018;79;21033;-72
2021/10/31 05:56:09;;;;;;;27.53;15.10;;;;;;;4.40;100.00;101432.15;1781076;79;21033;-73
2021/10/31 05:58:36;;;;;;;31.47;14.50;;;;;;;4.47;100.00;101437.01;1799482;78;21038;-72
2021/10/31 06:01:04;;;;;;;23.07;13.57;;;;;;;4.55;100.00;101432.03;1809670;78;21048;-71
2021/10/31 06:03:31;;;;;;;23.70;13.23;;;;;;;4.67;100.00;101438.89;1825242;77;21608;-72
2021/10/31 06:05:59;;;;;;;26.63;13.80;;;;;;;4.78;100.00;101435.06;1803651;78;21089;-72
2021/10/31 06:08:27;;;;;;;28.57;15.87;;;;;;;4.91;100.00;101437.30;1828508;78;20982;-70
2021/10/31 06:10:53;;;;;;;41.17;20.93;;;;;;;5.04;100.00;101429.30;1801424;78;21078;-72
2021/10/31 06:13:20;;;;;;;29.37;16.23;;;;;;;5.17;100.00;101424.02;1806485;78;21021;-71
2021/10/31 06:15:49;;;;;;;27.83;13.63;;;;;;;5.29;100.00;101423.20;1808150;78;21072;-72
2021/10/31 06:18:19;;;;;;;26.97;13.43;;;;;;;5.43;100.00;101417.36;1827981;77;21029;-71
2021/10/31 06:20:46;;;;;;;35.20;18.60;;;;;;;5.57;100.00;101410.57;1828019;78;21022;-72
2021/10/31 06:23:14;;;;;;;26.77;15.57;;;;;;;5.71;100.00;101418.53;1828275;77;21025;-71
2021/10/31 06:25:42;;;;;;;23.30;12.33;;;;;;;5.87;100.00;101409.42;1825814;78;21074;-73
2021/10/31 06:28:09;;;;;;;22.97;12.30;;;;;;;6.04;100.00;101409.13;1825627;78;21014;-72
2021/10/31 06:30:36;;;;;;;22.87;11.70;;;;;;;6.19;100.00;101407.17;1777774;78;20971;-72
2021/10/31 06:33:03;;;;;;;23.07;11.23;;;;;;;6.34;100.00;101402.55;1827444;78;21021;-74
2021/10/31 06:35:30;;;;;;;21.37;11.43;;;;;;;6.50;100.00;101397.39;1760865;80;21132;-71
2021/10/31 06:37:58;;;;;;;21.27;10.93;;;;;;;6.69;100.00;101396.91;1774109;81;21048;-73
2021/10/31 06:40:25;;;;;;;19.83;10.63;;;;;;;6.88;100.00;101389.20;1760549;81;21005;-70
2021/10/31 06:42:52;;;;;;;19.77;10.80;;;;;;;7.11;100.00;101382.59;1779909;80;21061;-71
2021/10/31 06:45:20;;;;;;;21.83;10.63;;;;;;;7.35;100.00;101379.88;1760716;81;21080;-71
2021/10/31 06:47:47;;;;;;;19.37;10.20;;;;;;;7.56;100.00;101382.73;1808275;78;21548;-71
2021/10/31 06:50:14;;;;;;;20.73;11.07;;;;;;;7.72;100.00;101373.85;1807049;78;20995;-73
2021/10/31 06:52:41;;;;;;;18.80;9.07;;;;;;;7.88;100.00;101370.81;1801398;78;21072;-71
2021/10/31 06:55:11;;;;;;;21.73;10.23;;;;;;;8.05;100.00;101365.41;1828268;77;20974;-71
2021/10/31 06:57:39;;;;;;;19.87;9.83;;;;;;;8.26;100.00;101366.03;1828544;78;21441;-77
2021/10/31 07:00:08;;;;;;;19.47;9.67;;;;;;;8.48;100.00;101366.52;1827956;78;21486;-77
2021/10/31 07:02:37;;;;;;;27.93;9.90;;;;;;;8.72;100.00;101363.16;1823886;78;21047;-77
2021/10/31 07:05:05;;;;;;;18.97;9.80;;;;;;;8.97;100.00;101363.81;1790188;78;20972;-78
2021/10/31 07:07:32;;;;;;;19.63;9.67;;;;;;;9.19;100.00;101364.70;1820400;78;21028;-78
2021/10/31 07:10:00;;;;;;;17.90;8.77;;;;;;;9.33;100.00;101360.38;1819582;78;21031;-78
2021/10/31 07:12:27;;;;;;;17.50;9.33;;;;;;;9.41;100.00;101363.25;1798109;78;21071;-78
2021/10/31 07:14:55;;;;;;;19.40;9.33;;;;;;;9.50;100.00;101351.66;1792412;78;20970;-74
2021/10/31 07:17:24;;;;;;;20.95;8.93;;;;;;;9.59;100.00;101362.66;1834720;77;21006;-74
2021/10/31 07:19:51;;;;;;;20.87;9.90;;;;;;;9.79;100.00;101359.10;1799660;77;21477;-69
2021/10/31 07:22:19;;;;;;;16.67;8.77;;;;;;;10.00;100.00;101358.19;1815741;77;21775;-70
2021/10/31 07:24:50;;;;;;;24.43;9.60;;;;;;;10.17;100.00;101358.06;1769387;79;71066;-76
2021/10/31 07:27:17;;;;;;;17.62;8.65;;;;;;;10.34;100.00;101357.92;1785759;79;21084;-75
2021/10/31 07:29:44;;;;;;;15.95;7.87;;;;;;;10.45;100.00;101355.13;1826696;78;21020;-76
2021/10/31 07:32:12;;;;;;;17.23;8.18;;;;;;;10.51;100.00;101349.16;1829266;78;20988;-76
2021/10/31 07:34:39;;;;;;;14.00;7.75;;;;;;;10.68;100.00;101348.11;1829427;78;20967;-76
2021/10/31 07:37:06;;;;;;;16.45;8.85;;;;;;;10.90;100.00;101339.75;1833330;78;20968;-75
2021/10/31 07:39:35;;;;;;;17.45;8.70;;;;;;;11.08;100.00;101332.27;1826212;78;20982;-77
2021/10/31 07:42:02;;;;;;;18.12;8.63;;;;;;;11.16;100.00;101329.21;1832914;78;20985;-77
2021/10/31 07:44:30;;;;;;;16.30;8.58;;;;;;;11.32;100.00;101333.20;1829808;77;21084;-77
2021/10/31 07:46:57;;;;;;;15.55;8.30;;;;;;;11.54;100.00;101331.53;1834933;77;20990;-78
2021/10/31 07:49:24;;;;;;;18.90;9.65;;;;;;;11.71;100.00;101335.32;1831089;77;20982;-74
2021/10/31 07:51:51;;;;;;;18.75;9.83;;;;;;;11.83;100.00;101322.45;1838408;77;21541;-77
2021/10/31 07:54:23;;;;;;;18.35;8.83;;;;;;;12.07;100.00;101334.14;1826628;77;20987;-77
2021/10/31 07:56:49;;;;;;;21.95;8.98;;;;;;;12.33;100.00;101330.24;1831649;77;21019;-79
2021/10/31 07:59:17;;;;;;;23.73;10.23;;;;;;;12.45;100.00;101330.06;1793185;78;21161;-76
2021/10/31 08:01:45;;;;;;;18.95;8.43;;;;;;;12.43;100.00;101331.56;1816374;78;21520;-77
2021/10/31 08:04:12;;;;;;;19.73;9.75;;;;;;;12.48;100.00;101322.95;1806547;78;21021;-78
2021/10/31 08:06:40;;;;;;;21.27;9.28;;;;;;;12.50;100.00;101321.81;1810093;78;21507;-76
2021/10/31 08:09:07;;;;;;;17.23;7.85;;;;;;;12.64;100.00;101323.16;1843604;77;21023;-77
2021/10/31 08:11:34;;;;;;;18.92;8.20;;;;;;;12.83;100.00;101315.86;1827679;78;21481;-76
2021/10/31 08:14:02;;;;;;;19.42;8.43;;;;;;;12.93;100.00;101326.15;1836215;77;21039;-78
2021/10/31 08:16:29;;;;;;;19.60;9.43;;;;;;;13.02;100.00;101317.06;1835347;77;21537;-76
2021/10/31 08:18:56;;;;;;;15.80;8.00;;;;;;;13.11;100.00;101313.40;1830402;78;20968;-77
2021/10/31 08:21:25;;;;;;;16.95;8.05;;;;;;;13.20;100.00;101310.25;1790287;78;21002;-77
2021/10/31 08:23:52;;;;;;;18.95;8.15;;;;;;;13.30;100.00;101316.45;1823853;78;20936;-80
2021/10/31 08:26:20;;;;;;;19.90;8.20;;;;;;;13.47;100.00;101309.80;1816874;78;21061;-77
2021/10/31 08:28:48;;;;;;;16.02;8.25;;;;;;;13.63;100.00;101301.78;1814462;78;20986;-77
2021/10/31 08:31:24;;;;;;;17.48;8.13;;;;;;;13.84;100.00;101304.08;1829258;76;21444;-77
2021/10/31 08:33:47;;;;;;;16.52;8.25;;;;;;;13.84;100.00;101313.60;1784950;79;21060;-76
2021/10/31 08:36:14;;;;;;;18.85;8.25;;;;;;;13.86;100.00;101306.16;1830681;77;20990;-78
2021/10/31 08:38:41;;;;;;;18.23;8.60;;;;;;;13.96;100.00;101301.11;1825382;78;21457;-76
2021/10/31 08:41:08;;;;;;;18.62;9.23;;;;;;;14.08;100.00;101298.44;1828531;78;21047;-77
2021/10/31 08:43:35;;;;;;;16.25;8.33;;;;;;;14.12;100.00;101300.33;1834757;78;20951;-75
2021/10/31 08:46:02;;;;;;;17.17;8.73;;;;;;;14.13;100.00;101293.85;1828773;78;20991;-77
2021/10/31 08:48:30;;;;;;;21.05;9.13;;;;;;;14.15;100.00;101288.61;1838095;77;20997;-77
2021/10/31 08:50:58;;;;;;;18.77;8.73;;;;;;;14.20;100.00;101283.53;1831851;77;20942;-77
2021/10/31 08:53:27;;;;;;;23.80;10.60;;;;;;;14.29;100.00;101278.97;1824232;78;21047;-77
2021/10/31 08:55:54;;;;;;;21.80;9.75;;;;;;;14.49;100.00;101275.97;1829851;77;20982;-77
2021/10/31 08:58:21;;;;;;;21.17;8.20;;;;;;;14.63;100.00;101263.61;1828494;78;21014;-75
2021/10/31 09:00:48;;;;;;;17.57;8.13;;;;;;;14.60;100.00;101263.42;1810047;78;21061;-77
2021/10/31 09:03:14;;;;;;;18.37;8.75;;;;;;;14.52;100.00;101266.08;1796964;79;21436;-82
2021/10/31 09:05:41;;;;;;;17.37;8.80;;;;;;;14.56;100.00;101258.79;1810424;78;21029;-80
2021/10/31 09:08:10;;;;;;;19.12;8.65;;;;;;;14.73;100.00;101250.18;1806582;78;21027;-83
2021/10/31 09:10:38;;;;;;;22.30;9.40;;;;;;;14.96;100.00;101245.39;1805550;78;21053;-80
2021/10/31 09:13:05;;;;;;;73.40;15.15;;;;;;;15.03;100.00;101245.05;1810015;76;21014;-82
2021/10/31 09:15:32;;;;;;;19.57;9.03;;;;;;;15.05;100.00;101232.63;1819744;76;21475;-82
2021/10/31 09:18:00;;;;;;;14.47;7.15;;;;;;;15.07;100.00;101237.39;1794417;79;20975;-82
2021/10/31 09:20:31;;;;;;;13.28;6.47;;;;;;;15.09;100.00;101225.31;1813756;78;20982;-82
2021/10/31 09:22:58;;;;;;;19.98;7.53;;;;;;;15.32;100.00;101232.78;1829230;78;20997;-81
2021/10/31 09:25:25;;;;;;;19.25;6.95;;;;;;;15.32;100.00;101232.78;1822481;78;20987;-82
2021/10/31 09:27:54;;;;;;;15.00;6.70;;;;;;;15.43;100.00;101228.84;1793688;77;21103;-85
2021/10/31 09:30:23;;;;;;;22.40;8.20;;;;;;;15.49;100.00;101222.19;1812386;77;21018;-83
2021/10/31 09:32:53;;;;;;;16.23;7.22;;;;;;;15.54;100.00;101216.20;1820910;78;21504;-82
2021/10/31 09:35:23;;;;;;;14.55;7.17;;;;;;;15.60;100.00;101216.87;1824307;77;21500;-82
2021/10/31 09:37:56;;;;;;;19.82;7.40;;;;;;;15.73;100.00;101214.95;1816121;77;21517;-83
2021/10/31 09:40:23;;;;;;;14.55;7.03;;;;;;;15.83;100.00;101211.53;1819644;78;21003;-83
2021/10/31 09:42:52;;;;;;;15.70;7.50;;;;;;;15.82;100.00;101200.28;1824120;77;21010;-83
2021/10/31 09:45:22;;;;;;;21.97;7.55;;;;;;;15.83;100.00;101194.30;1809668;77;21039;-82
2021/10/31 09:48:09;;;;;;;12.18;6.33;;;;;;;15.77;100.00;101205.41;1812170;77;21011;-81
2021/10/31 09:50:43;;;;;;;23.98;8.23;;;;;;;15.83;100.00;101201.11;1809844;77;21027;-80
2021/10/31 09:53:13;;;;;;;13.58;7.40;;;;;;;15.96;100.00;101195.95;1717420;82;21051;-81
2021/10/31 09:55:40;;;;;;;15.18;7.15;;;;;;;15.97;100.00;101187.25;1726585;82;21118;-83
2021/10/31 09:58:17;;;;;;;17.82;7.50;;;;;;;15.90;100.00;101185.25;1738414;81;21582;-81
2021/10/31 10:00:40;;;;;;;13.32;6.65;;;;;;;15.83;100.00;101184.27;1716678;82;21112;-82
2021/10/31 10:03:34;;;;;;;16.65;7.65;;;;;;;15.94;100.00;101180.28;1767733;81;21044;-84
2021/10/31 10:06:15;;;;;;;13.05;7.28;;;;;;;15.97;100.00;101173.61;1745740;82;21063;-83
2021/10/31 10:09:07;;;;;;;18.17;7.05;;;;;;;15.98;100.00;101168.50;1765718;81;21030;-82
2021/10/31 10:14:25;;;;;;;15.10;6.85;;;;;;;15.93;100.00;101149.41;1704968;82;85409;-71
2021/10/31 10:17:01;;;;;;;14.13;6.40;;;;;;;16.05;100.00;101151.75;1746165;81;21057;-72
2021/10/31 10:22:25;;;;;;;19.23;7.62;;;;;;;16.05;100.00;101144.41;1583410;87;21027;-70
2021/10/31 10:24:57;;;;;;;;;;;;;;;15.96;100.00;101136.47;1585069;88;21201;-71
2021/10/31 10:27:27;;;;;;;20.30;10.00;;;;;;;15.91;100.00;101136.99;1581067;88;20241;-72
2021/10/31 10:29:55;;;;;;;16.15;7.97;;;;;;;15.99;100.00;101140.17;1574220;88;21037;-70
2021/10/31 10:32:24;;;;;;;17.25;7.17;;;;;;;16.12;100.00;101136.36;1555496;90;21120;-70
2021/10/31 10:34:56;;;;;;;15.75;7.28;;;;;;;16.17;100.00;101129.84;1568351;88;21494;-71
2021/10/31 10:37:36;;;;;;;18.67;8.33;;;;;;;16.15;100.00;101130.55;1578096;87;21098;-69
2021/10/31 10:40:08;;;;;;;22.62;8.53;;;;;;;16.12;100.00;101122.19;1586151;87;21026;-73
2021/10/31 10:42:41;;;;;;;19.95;8.73;;;;;;;16.09;100.00;101120.34;1534465;91;21174;-73
2021/10/31 10:45:15;;;;;;;17.92;8.90;;;;;;;15.93;100.00;101113.95;1581445;88;21027;-70
2021/10/31 10:47:48;;;;;;;24.98;9.03;;;;;;;15.89;100.00;101110.42;1586270;89;23115;-71
2021/10/31 10:50:21;;;;;;;19.30;10.32;;;;;;;15.86;100.00;101115.70;1570198;89;21536;-71
2021/10/31 10:52:50;;;;;;;18.73;9.95;;;;;;;15.86;100.00;101113.50;1574973;89;21055;-70
2021/10/31 10:55:22;;;;;;;26.33;14.93;;;;;;;15.92;100.00;101100.52;1560352;89;21106;-71
2021/10/31 10:57:52;;;;;;;34.10;19.25;;;;;;;15.99;100.00;101101.50;1577315;88;21634;-71
2021/10/31 11:00:27;;;;;;;31.33;21.20;;;;;;;16.01;100.00;101095.34;1570671;89;21666;-70
2021/10/31 11:03:04;;;;;;;31.30;20.75;;;;;;;16.01;100.00;101097.23;1563352;90;21039;-69
2021/10/31 11:05:44;;;;;;;49.60;26.95;;;;;;;16.03;100.00;101093.80;1538629;90;21077;-70
2021/10/31 11:08:19;;;;;;;34.48;21.70;;;;;;;16.03;100.00;101088.34;1526703;93;21087;-70
2021/10/31 11:11:12;;;;;;;30.90;19.20;;;;;;;15.90;100.00;101086.19;1517908;92;21135;-70
2021/10/31 11:13:55;;;;;;;46.28;21.05;;;;;;;15.87;100.00;101086.05;1435070;98;21166;-70
2021/10/31 11:16:22;;;;;;;36.30;21.05;;;;;;;15.84;100.00;101082.31;1456277;96;21136;-72
2021/10/31 11:18:51;;;;;;;42.83;23.92;;;;;;;15.80;100.00;101078.78;1434688;96;21128;-70
2021/10/31 11:21:18;;;;;;;43.33;30.25;;;;;;;15.81;100.00;101070.42;1470944;91;21131;-70
2021/10/31 11:23:46;;;;;;;42.95;29.98;;;;;;;15.84;100.00;101070.56;1515788;92;21107;-71
2021/10/31 11:26:15;;;;;;;39.45;28.00;;;;;;;15.83;100.00;101072.45;1536098;91;21093;-71
2021/10/31 11:28:41;;;;;;;40.60;26.10;;;;;;;15.83;100.00;101075.17;1532311;91;21153;-70